createdAt,value
2019-01-02T00:00:50.732Z,103544.13
2019-01-02T00:05:52.687Z,103546.59
2019-01-02T00:10:54.238Z,103553.62
2019-01-02T00:15:55.783Z,103556.16
2019-01-02T00:20:57.642Z,103569.78
2019-01-02T00:25:59.520Z,103569.73
2019-01-02T00:31:01.118Z,103562.42
2019-01-02T00:36:02.680Z,103569.38
2019-01-02T00:41:04.230Z,103577.48
2019-01-02T00:46:05.895Z,103574.18
2019-01-02T00:51:07.435Z,103580.44
2019-01-02T00:56:08.990Z,103572.90
2019-01-02T01:01:10.887Z,103567.70
2019-01-02T01:06:12.432Z,103574.34
2019-01-02T01:11:14.281Z,103588.33
2019-01-02T01:16:15.815Z,103604.79
2019-01-02T01:21:17.745Z,103605.16
2019-01-02T01:26:19.608Z,103606.84
2019-01-02T01:31:21.782Z,103620.71
2019-01-02T01:36:23.702Z,103619.93
2019-01-02T01:41:25.268Z,103616.36
2019-01-02T01:46:27.589Z,103606.55
2019-01-02T01:51:29.112Z,103620.15
2019-01-02T01:56:30.644Z,103619.33
2019-01-02T02:01:32.534Z,103622.20
2019-01-02T02:06:34.671Z,103631.04
2019-01-02T02:11:36.201Z,103633.11
2019-01-02T02:16:38.098Z,103640.91
2019-01-02T02:21:40.171Z,103654.80
2019-01-02T02:26:42.014Z,103664.92
2019-01-02T02:31:43.672Z,103668.52
2019-01-02T02:36:45.209Z,103675.95
2019-01-02T02:41:47.264Z,103688.30
2019-01-02T02:46:49.595Z,103678.08
2019-01-02T02:51:52.956Z,103666.91
2019-01-02T02:56:54.540Z,103659.53
2019-01-02T03:01:58.273Z,103665.05
2019-01-02T03:07:00.964Z,103658.58
2019-01-02T03:12:02.812Z,103672.26
2019-01-02T03:17:04.634Z,103670.53
2019-01-02T03:22:06.503Z,103675.62
2019-01-02T03:27:08.515Z,103678.04
2019-01-02T03:32:10.069Z,103673.05
2019-01-02T03:37:12.004Z,103681.91
2019-01-02T03:42:13.536Z,103691.45
2019-01-02T03:47:15.077Z,103684.69
2019-01-02T03:52:16.638Z,103679.41
2019-01-02T03:57:18.168Z,103681.69
2019-01-02T04:02:19.778Z,103672.37
2019-01-02T04:07:21.298Z,103669.72
2019-01-02T04:12:22.876Z,103670.00
2019-01-02T04:17:24.417Z,103665.42
2019-01-02T04:22:27.346Z,103663.84
2019-01-02T04:27:28.887Z,103660.67
2019-01-02T04:32:30.434Z,103660.12
2019-01-02T04:37:31.953Z,103670.59
2019-01-02T04:42:34.292Z,103669.05
2019-01-02T04:47:35.854Z,103669.94
2019-01-02T04:52:37.765Z,103666.45
2019-01-02T04:57:39.317Z,103673.61
2019-01-02T05:02:40.857Z,103676.07
2019-01-02T05:07:42.404Z,103666.77
2019-01-02T05:12:43.936Z,103678.73
2019-01-02T05:17:45.592Z,103686.52
2019-01-02T05:22:47.891Z,103684.61
2019-01-02T05:27:49.409Z,103688.97
2019-01-02T05:32:51.005Z,103684.13
2019-01-02T05:37:53.999Z,103699.59
2019-01-02T05:42:55.730Z,103708.61
2019-01-02T05:47:57.279Z,103693.11
2019-01-02T05:52:58.872Z,103711.73
2019-01-02T05:58:00.427Z,103709.54
2019-01-02T06:03:02.043Z,103713.59
2019-01-02T06:08:03.552Z,103718.81
2019-01-02T06:13:08.174Z,103715.59
2019-01-02T06:18:10.435Z,103729.94
2019-01-02T06:23:12.012Z,103740.45
2019-01-02T06:28:13.550Z,103739.39
2019-01-02T06:33:15.094Z,103752.64
2019-01-02T06:38:16.684Z,103757.03
2019-01-02T06:43:18.296Z,103745.54
2019-01-02T06:48:19.907Z,103754.36
2019-01-02T06:53:22.517Z,103753.28
2019-01-02T06:58:24.032Z,103759.23
2019-01-02T07:03:25.679Z,103759.23
2019-01-02T07:08:27.560Z,103768.45
2019-01-02T07:13:29.104Z,103773.66
2019-01-02T07:18:30.698Z,103785.37
2019-01-02T07:23:32.309Z,103797.22
2019-01-02T07:28:34.135Z,103793.38
2019-01-02T07:33:43.498Z,103795.38
2019-01-02T07:38:59.611Z,103808.36
2019-01-02T07:44:41.385Z,103826.23
2019-01-02T07:50:39.977Z,103827.77
2019-01-02T07:56:20.519Z,103846.34
2019-01-02T08:02:19.131Z,103844.59
2019-01-02T08:07:48.040Z,103852.71
2019-01-02T08:13:28.560Z,103864.81
2019-01-02T08:19:12.838Z,103865.21
2019-01-02T08:24:54.132Z,103862.69
2019-01-02T08:30:37.430Z,103877.17
2019-01-02T08:36:23.919Z,103884.95
2019-01-02T08:42:14.623Z,103890.91
2019-01-02T08:47:55.772Z,103891.17
2019-01-02T08:53:27.268Z,103893.52
2019-01-02T08:59:13.858Z,103909.49
2019-01-02T09:04:57.162Z,103907.37
2019-01-02T09:10:43.589Z,103910.42
2019-01-02T09:16:25.811Z,103911.61
2019-01-02T09:21:59.844Z,103905.38
2019-01-02T09:27:43.181Z,103898.45
2019-01-02T09:33:20.781Z,103932.98
2019-01-02T09:39:07.010Z,103926.95
2019-01-02T09:44:39.100Z,103936.14
2019-01-02T09:50:07.885Z,103945.75
2019-01-02T09:55:36.328Z,103942.89
2019-01-02T10:01:09.940Z,103956.41
2019-01-02T10:07:24.029Z,103954.70
2019-01-02T10:12:56.331Z,103954.81
2019-01-02T10:18:39.115Z,103953.16
2019-01-02T10:24:19.678Z,103950.24
2019-01-02T10:29:55.501Z,103948.91
2019-01-02T10:35:28.201Z,103956.97
2019-01-02T10:41:13.566Z,103964.81
2019-01-02T10:46:41.442Z,103961.36
2019-01-02T10:52:19.449Z,103961.36
2019-01-02T10:58:04.511Z,103954.17
2019-01-02T11:03:35.526Z,103945.80
2019-01-02T11:09:23.853Z,103950.94
2019-01-02T11:15:03.571Z,103947.84
2019-01-02T11:21:05.293Z,103945.52
2019-01-02T11:26:53.348Z,103945.07
2019-01-02T11:32:27.157Z,103948.23
2019-01-02T11:38:01.933Z,103948.76
2019-01-02T11:43:40.878Z,103939.81
2019-01-02T11:48:42.803Z,103943.83
2019-01-02T11:53:44.336Z,103942.91
2019-01-02T11:58:49.963Z,103940.94
2019-01-02T12:03:49.657Z,103934.94
2019-01-02T12:08:51.237Z,103919.35
2019-01-02T12:13:53.904Z,103930.37
2019-01-02T12:18:55.790Z,103933.33
2019-01-02T12:23:57.364Z,103931.80
2019-01-02T12:28:58.942Z,103929.74
2019-01-02T12:34:02.278Z,103928.63
2019-01-02T12:39:05.105Z,103931.10
2019-01-02T12:44:08.441Z,103925.27
2019-01-02T12:49:10.884Z,103930.27
2019-01-02T12:54:12.482Z,103936.19
2019-01-02T12:59:24.155Z,103936.57
2019-01-02T13:04:58.194Z,103935.47
2019-01-02T13:10:44.352Z,103939.70
2019-01-02T13:16:08.886Z,103936.79
2019-01-02T13:21:38.246Z,103943.66
2019-01-02T13:27:24.471Z,103937.16
2019-01-02T13:33:00.921Z,103934.67
2019-01-02T13:38:38.300Z,103943.37
2019-01-02T13:44:30.594Z,103946.73
2019-01-02T13:49:52.506Z,103951.21
2019-01-02T13:54:57.331Z,103952.88
2019-01-02T13:59:59.154Z,103950.82
2019-01-02T14:05:01.052Z,103979.61
2019-01-02T14:10:03.111Z,103961.41
2019-01-02T14:15:05.168Z,103966.66
2019-01-02T14:20:06.711Z,103984.95
2019-01-02T14:25:08.624Z,103982.83
2019-01-02T14:30:10.162Z,103983.53
2019-01-02T14:35:11.708Z,103980.92
2019-01-02T14:40:13.919Z,103983.98
2019-01-02T14:45:15.432Z,103986.13
2019-01-02T14:50:18.110Z,103990.52
2019-01-02T14:55:19.652Z,103994.53
2019-01-02T15:00:21.904Z,103991.93
2019-01-02T15:05:23.580Z,103991.70
2019-01-02T15:10:25.107Z,103997.70
2019-01-02T15:15:26.657Z,103997.60
2019-01-02T15:20:28.568Z,104004.50
2019-01-02T15:25:30.436Z,104008.30
2019-01-02T15:30:32.120Z,104005.31
2019-01-02T15:35:33.667Z,104015.19
2019-01-02T15:40:35.292Z,104019.11
2019-01-02T15:45:36.854Z,104023.95
2019-01-02T15:50:38.944Z,104030.37
2019-01-02T15:55:40.596Z,104031.72
2019-01-02T16:00:42.460Z,104027.88
2019-01-02T16:05:44.225Z,104027.36
2019-01-02T16:10:46.280Z,104023.70
2019-01-02T16:15:47.835Z,104035.30
2019-01-02T16:20:49.513Z,104042.56
2019-01-02T16:25:52.293Z,104043.72
2019-01-02T16:30:54.062Z,104052.88
2019-01-02T16:35:55.704Z,104054.03
2019-01-02T16:40:58.332Z,104062.23
2019-01-02T16:46:00.675Z,104053.17
2019-01-02T16:51:02.339Z,104055.80
2019-01-02T16:56:04.046Z,104058.56
2019-01-02T17:01:05.685Z,104061.72
2019-01-02T17:06:07.903Z,104062.60
2019-01-02T17:11:09.597Z,104059.34
2019-01-02T17:16:11.422Z,104059.56
2019-01-02T17:21:13.032Z,104065.94
2019-01-02T17:26:14.781Z,104067.63
2019-01-02T17:31:16.316Z,104069.52
2019-01-02T17:36:18.009Z,104071.77
2019-01-02T17:41:20.218Z,104067.63
2019-01-02T17:46:21.774Z,104071.89
2019-01-02T17:51:23.429Z,104074.84
2019-01-02T17:56:25.108Z,104071.64
2019-01-02T18:01:27.752Z,104070.07
2019-01-02T18:06:29.352Z,104073.18
2019-01-02T18:11:30.989Z,104079.11
2019-01-02T18:16:32.506Z,104078.18
2019-01-02T18:21:34.435Z,104082.14
2019-01-02T18:26:36.018Z,104088.31
2019-01-02T18:31:37.553Z,104086.80
2019-01-02T18:36:39.561Z,104095.17
2019-01-02T18:41:41.085Z,104094.98
2019-01-02T18:46:43.428Z,104086.95
2019-01-02T18:51:44.980Z,104087.72
2019-01-02T18:56:46.547Z,104095.55
2019-01-02T19:01:48.417Z,104101.10
2019-01-02T19:06:50.013Z,104100.52
2019-01-02T19:11:51.585Z,104103.12
2019-01-02T19:16:53.158Z,104115.38
2019-01-02T19:21:54.723Z,104110.17
2019-01-02T19:26:56.385Z,104114.08
2019-01-02T19:31:57.931Z,104117.61
2019-01-02T19:36:59.571Z,104123.59
2019-01-02T19:42:01.057Z,104120.06
2019-01-02T19:47:02.619Z,104122.67
2019-01-02T19:52:04.254Z,104128.97
2019-01-02T19:57:07.024Z,104124.50
2019-01-02T20:02:08.555Z,104115.38
2019-01-02T20:07:10.200Z,104114.48
2019-01-02T20:12:11.912Z,104119.34
2019-01-02T20:17:13.460Z,104115.06
2019-01-02T20:22:15.119Z,104107.98
2019-01-02T20:27:16.689Z,104109.85
2019-01-02T20:32:18.630Z,104108.14
2019-01-02T20:37:20.279Z,104105.19
2019-01-02T20:42:21.951Z,104098.15
2019-01-02T20:47:23.873Z,104102.08
2019-01-02T20:52:25.430Z,104106.55
2019-01-02T20:57:27.040Z,104108.59
2019-01-02T21:02:29.016Z,104102.81
2019-01-02T21:07:30.613Z,104095.56
2019-01-02T21:12:32.176Z,104089.64
2019-01-02T21:17:33.675Z,104096.36
2019-01-02T21:22:35.302Z,104085.75
2019-01-02T21:27:36.911Z,104092.27
2019-01-02T21:32:38.544Z,104082.42
2019-01-02T21:37:41.793Z,104089.12
2019-01-02T21:42:44.703Z,104085.94
2019-01-02T21:47:46.355Z,104072.70
2019-01-02T21:52:48.356Z,104072.86
2019-01-02T21:57:50.408Z,104069.52
2019-01-02T22:02:52.005Z,104065.60
2019-01-02T22:07:53.646Z,104061.22
2019-01-02T22:12:55.248Z,104065.86
2019-01-02T22:17:56.861Z,104069.19
2019-01-02T22:22:58.479Z,104070.20
2019-01-02T22:28:00.064Z,104070.17
2019-01-02T22:33:01.944Z,104072.20
2019-01-02T22:38:03.550Z,104079.08
2019-01-02T22:43:05.163Z,104076.98
2019-01-02T22:48:07.274Z,104071.95
2019-01-02T22:53:08.816Z,104077.33
2019-01-02T22:58:10.424Z,104075.46
2019-01-02T23:03:11.970Z,104081.84
2019-01-02T23:08:13.888Z,104067.73
2019-01-02T23:13:15.470Z,104072.38
2019-01-02T23:18:16.992Z,104077.06
2019-01-02T23:23:18.936Z,104069.98
2019-01-02T23:28:20.630Z,104075.94
2019-01-02T23:33:22.142Z,104071.71
2019-01-02T23:38:23.665Z,104075.22
2019-01-02T23:43:25.176Z,104071.15
2019-01-02T23:48:26.731Z,104065.22
2019-01-02T23:53:28.248Z,104065.96
2019-01-02T23:58:29.866Z,104069.84
